sensor_id;sensor_type;location;lat;lon;timestamp;temperature;humidity
9951;DHT22;24074;49.254;6.702;2024-02-21T00:00:35;7.30;99.90
9951;DHT22;24074;49.254;6.702;2024-02-21T00:03:03;7.40;99.90
9951;DHT22;24074;49.254;6.702;2024-02-21T00:05:30;7.40;99.90
9951;DHT22;24074;49.254;6.702;2024-02-21T00:07:55;7.50;99.90
9951;DHT22;24074;49.254;6.702;2024-02-21T00:10:21;7.40;99.90
9951;DHT22;24074;49.254;6.702;2024-02-21T00:12:47;7.50;99.90
9951;DHT22;24074;49.254;6.702;2024-02-21T00:15:12;7.50;99.90
9951;DHT22;24074;49.254;6.702;2024-02-21T00:17:38;7.60;99.90
9951;DHT22;24074;49.254;6.702;2024-02-21T00:20:04;7.60;99.90
9951;DHT22;24074;49.254;6.702;2024-02-21T00:22:30;7.50;99.90
9951;DHT22;24074;49.254;6.702;2024-02-21T00:24:56;7.40;99.90
9951;DHT22;24074;49.254;6.702;2024-02-21T00:27:23;7.40;99.90
9951;DHT22;24074;49.254;6.702;2024-02-21T00:29:49;7.20;99.90
9951;DHT22;24074;49.254;6.702;2024-02-21T00:32:14;7.10;99.90
9951;DHT22;24074;49.254;6.702;2024-02-21T00:34:40;7.10;99.90
9951;DHT22;24074;49.254;6.702;2024-02-21T00:37:05;7.20;99.90
9951;DHT22;24074;49.254;6.702;2024-02-21T00:39:31;7.30;99.90
9951;DHT22;24074;49.254;6.702;2024-02-21T00:41:57;7.30;99.90
9951;DHT22;24074;49.254;6.702;2024-02-21T00:44:23;7.30;99.90
9951;DHT22;24074;49.254;6.702;2024-02-21T00:46:48;7.30;99.90
9951;DHT22;24074;49.254;6.702;2024-02-21T00:49:14;7.20;99.90
9951;DHT22;24074;49.254;6.702;2024-02-21T00:51:39;7.20;99.90
9951;DHT22;24074;49.254;6.702;2024-02-21T00:54:05;7.10;99.90
9951;DHT22;24074;49.254;6.702;2024-02-21T00:56:31;7.10;99.90
9951;DHT22;24074;49.254;6.702;2024-02-21T00:58:57;7.00;99.90
9951;DHT22;24074;49.254;6.702;2024-02-21T01:01:26;7.00;99.90
9951;DHT22;24074;49.254;6.702;2024-02-21T01:03:52;7.00;99.90
9951;DHT22;24074;49.254;6.702;2024-02-21T01:06:19;7.00;99.90
9951;DHT22;24074;49.254;6.702;2024-02-21T01:08:46;7.00;99.90
9951;DHT22;24074;49.254;6.702;2024-02-21T01:11:12;6.90;99.90
9951;DHT22;24074;49.254;6.702;2024-02-21T01:13:38;7.00;99.90
9951;DHT22;24074;49.254;6.702;2024-02-21T01:16:04;7.10;99.90
9951;DHT22;24074;49.254;6.702;2024-02-21T01:18:29;7.10;99.90
9951;DHT22;24074;49.254;6.702;2024-02-21T01:20:55;7.10;99.90
9951;DHT22;24074;49.254;6.702;2024-02-21T01:23:21;7.10;99.90
9951;DHT22;24074;49.254;6.702;2024-02-21T01:25:46;7.10;99.90
9951;DHT22;24074;49.254;6.702;2024-02-21T01:28:12;7.10;99.90
9951;DHT22;24074;49.254;6.702;2024-02-21T01:30:37;7.10;99.90
9951;DHT22;24074;49.254;6.702;2024-02-21T01:33:03;7.10;99.90
9951;DHT22;24074;49.254;6.702;2024-02-21T01:35:29;7.10;99.90
9951;DHT22;24074;49.254;6.702;2024-02-21T01:37:54;7.10;99.90
9951;DHT22;24074;49.254;6.702;2024-02-21T01:40:20;7.20;99.90
9951;DHT22;24074;49.254;6.702;2024-02-21T01:42:45;7.10;99.90
9951;DHT22;24074;49.254;6.702;2024-02-21T01:45:13;7.00;99.90
9951;DHT22;24074;49.254;6.702;2024-02-21T01:47:38;6.90;99.90
9951;DHT22;24074;49.254;6.702;2024-02-21T01:50:04;6.80;99.90
9951;DHT22;24074;49.254;6.702;2024-02-21T01:52:33;6.70;99.90
9951;DHT22;24074;49.254;6.702;2024-02-21T01:55:01;6.70;99.90
9951;DHT22;24074;49.254;6.702;2024-02-21T01:57:27;6.40;99.90
9951;DHT22;24074;49.254;6.702;2024-02-21T01:59:54;6.30;99.90
9951;DHT22;24074;49.254;6.702;2024-02-21T02:02:20;6.20;99.90
9951;DHT22;24074;49.254;6.702;2024-02-21T02:04:46;6.10;99.90
9951;DHT22;24074;49.254;6.702;2024-02-21T02:07:12;6.00;99.90
9951;DHT22;24074;49.254;6.702;2024-02-21T02:09:38;6.00;99.90
9951;DHT22;24074;49.254;6.702;2024-02-21T02:12:04;6.00;99.90
9951;DHT22;24074;49.254;6.702;2024-02-21T02:14:30;6.00;99.90
9951;DHT22;24074;49.254;6.702;2024-02-21T02:16:55;6.10;99.90
9951;DHT22;24074;49.254;6.702;2024-02-21T02:19:21;6.20;99.90
9951;DHT22;24074;49.254;6.702;2024-02-21T02:21:50;6.30;99.90
9951;DHT22;24074;49.254;6.702;2024-02-21T02:24:23;6.40;99.90
9951;DHT22;24074;49.254;6.702;2024-02-21T02:26:49;6.50;99.90
9951;DHT22;24074;49.254;6.702;2024-02-21T02:29:15;6.50;99.90
9951;DHT22;24074;49.254;6.702;2024-02-21T02:31:42;6.50;99.90
9951;DHT22;24074;49.254;6.702;2024-02-21T02:34:07;6.50;99.90
9951;DHT22;24074;49.254;6.702;2024-02-21T02:36:33;6.50;99.90
9951;DHT22;24074;49.254;6.702;2024-02-21T02:38:59;6.50;99.90
9951;DHT22;24074;49.254;6.702;2024-02-21T02:41:25;6.60;99.90
9951;DHT22;24074;49.254;6.702;2024-02-21T02:43:50;6.70;99.90
9951;DHT22;24074;49.254;6.702;2024-02-21T02:46:16;6.80;99.90
9951;DHT22;24074;49.254;6.702;2024-02-21T02:48:41;6.80;99.90
9951;DHT22;24074;49.254;6.702;2024-02-21T02:51:07;6.80;99.90
9951;DHT22;24074;49.254;6.702;2024-02-21T02:53:33;6.70;99.90
9951;DHT22;24074;49.254;6.702;2024-02-21T02:55:58;6.80;99.90
9951;DHT22;24074;49.254;6.702;2024-02-21T02:58:24;6.80;99.90
9951;DHT22;24074;49.254;6.702;2024-02-21T03:00:49;6.80;99.90
9951;DHT22;24074;49.254;6.702;2024-02-21T03:03:15;6.70;99.90
9951;DHT22;24074;49.254;6.702;2024-02-21T03:05:40;6.60;99.90
9951;DHT22;24074;49.254;6.702;2024-02-21T03:08:06;6.40;99.90
9951;DHT22;24074;49.254;6.702;2024-02-21T03:10:35;6.40;99.90
9951;DHT22;24074;49.254;6.702;2024-02-21T03:13:01;6.30;99.90
9951;DHT22;24074;49.254;6.702;2024-02-21T03:15:26;6.40;99.90
9951;DHT22;24074;49.254;6.702;2024-02-21T03:17:52;6.50;99.90
9951;DHT22;24074;49.254;6.702;2024-02-21T03:20:17;6.60;99.90
9951;DHT22;24074;49.254;6.702;2024-02-21T03:22:45;6.60;99.90
9951;DHT22;24074;49.254;6.702;2024-02-21T03:25:10;6.70;99.90
9951;DHT22;24074;49.254;6.702;2024-02-21T03:27:38;6.70;99.90
9951;DHT22;24074;49.254;6.702;2024-02-21T03:30:04;6.70;99.90
9951;DHT22;24074;49.254;6.702;2024-02-21T03:32:30;6.80;99.90
9951;DHT22;24074;49.254;6.702;2024-02-21T03:34:55;6.70;99.90
9951;DHT22;24074;49.254;6.702;2024-02-21T03:37:21;6.70;99.90
9951;DHT22;24074;49.254;6.702;2024-02-21T03:39:47;6.70;99.90
9951;DHT22;24074;49.254;6.702;2024-02-21T03:42:12;6.70;99.90
9951;DHT22;24074;49.254;6.702;2024-02-21T03:44:39;6.70;99.90
9951;DHT22;24074;49.254;6.702;2024-02-21T03:47:04;6.70;99.90
9951;DHT22;24074;49.254;6.702;2024-02-21T03:49:30;6.70;99.90
9951;DHT22;24074;49.254;6.702;2024-02-21T03:51:56;6.70;99.90
9951;DHT22;24074;49.254;6.702;2024-02-21T03:54:21;6.70;99.90
9951;DHT22;24074;49.254;6.702;2024-02-21T03:56:47;6.60;99.90
9951;DHT22;24074;49.254;6.702;2024-02-21T03:59:14;6.60;99.90
9951;DHT22;24074;49.254;6.702;2024-02-21T04:01:40;6.70;99.90
9951;DHT22;24074;49.254;6.702;2024-02-21T04:04:05;6.70;99.90
9951;DHT22;24074;49.254;6.702;2024-02-21T04:06:31;6.70;99.90
9951;DHT22;24074;49.254;6.702;2024-02-21T04:08:57;6.80;99.90
9951;DHT22;24074;49.254;6.702;2024-02-21T04:11:22;6.70;99.90
9951;DHT22;24074;49.254;6.702;2024-02-21T04:13:48;6.70;99.90
9951;DHT22;24074;49.254;6.702;2024-02-21T04:16:16;6.70;99.90
9951;DHT22;24074;49.254;6.702;2024-02-21T04:18:42;6.70;99.90
9951;DHT22;24074;49.254;6.702;2024-02-21T04:21:09;6.70;99.90
9951;DHT22;24074;49.254;6.702;2024-02-21T04:23:34;6.70;99.90
9951;DHT22;24074;49.254;6.702;2024-02-21T04:26:00;6.70;99.90
9951;DHT22;24074;49.254;6.702;2024-02-21T04:28:25;6.70;99.90
9951;DHT22;24074;49.254;6.702;2024-02-21T04:30:51;6.60;99.90
9951;DHT22;24074;49.254;6.702;2024-02-21T04:33:16;6.60;99.90
9951;DHT22;24074;49.254;6.702;2024-02-21T04:35:42;6.60;99.90
9951;DHT22;24074;49.254;6.702;2024-02-21T04:38:07;6.60;99.90
9951;DHT22;24074;49.254;6.702;2024-02-21T04:40:33;6.60;99.90
9951;DHT22;24074;49.254;6.702;2024-02-21T04:42:59;6.60;99.90
9951;DHT22;24074;49.254;6.702;2024-02-21T04:45:24;6.60;99.90
9951;DHT22;24074;49.254;6.702;2024-02-21T04:47:50;6.60;99.90
9951;DHT22;24074;49.254;6.702;2024-02-21T04:50:15;6.60;99.90
9951;DHT22;24074;49.254;6.702;2024-02-21T04:52:42;6.60;99.90
9951;DHT22;24074;49.254;6.702;2024-02-21T04:55:08;6.60;99.90
9951;DHT22;24074;49.254;6.702;2024-02-21T04:57:33;6.60;99.90
9951;DHT22;24074;49.254;6.702;2024-02-21T04:59:59;6.60;99.90
9951;DHT22;24074;49.254;6.702;2024-02-21T05:02:24;6.70;99.90
9951;DHT22;24074;49.254;6.702;2024-02-21T05:04:52;6.70;99.90
9951;DHT22;24074;49.254;6.702;2024-02-21T05:07:18;6.70;99.90
9951;DHT22;24074;49.254;6.702;2024-02-21T05:09:45;6.70;99.90
9951;DHT22;24074;49.254;6.702;2024-02-21T05:12:10;6.70;99.90
9951;DHT22;24074;49.254;6.702;2024-02-21T05:14:36;6.70;99.90
9951;DHT22;24074;49.254;6.702;2024-02-21T05:17:03;6.70;99.90
9951;DHT22;24074;49.254;6.702;2024-02-21T05:19:28;6.70;99.90
9951;DHT22;24074;49.254;6.702;2024-02-21T05:21:54;6.70;99.90
9951;DHT22;24074;49.254;6.702;2024-02-21T05:24:19;6.70;99.90
9951;DHT22;24074;49.254;6.702;2024-02-21T05:26:45;6.70;99.90
9951;DHT22;24074;49.254;6.702;2024-02-21T05:29:11;6.70;99.90
9951;DHT22;24074;49.254;6.702;2024-02-21T05:32:03;6.70;99.90
9951;DHT22;24074;49.254;6.702;2024-02-21T05:34:28;6.70;99.90
9951;DHT22;24074;49.254;6.702;2024-02-21T05:36:54;6.70;99.90
9951;DHT22;24074;49.254;6.702;2024-02-21T05:39:20;6.70;99.90
9951;DHT22;24074;49.254;6.702;2024-02-21T05:41:48;6.70;99.90
9951;DHT22;24074;49.254;6.702;2024-02-21T05:44:14;6.80;99.90
9951;DHT22;24074;49.254;6.702;2024-02-21T05:46:39;6.70;99.90
9951;DHT22;24074;49.254;6.702;2024-02-21T05:49:05;6.70;99.90
9951;DHT22;24074;49.254;6.702;2024-02-21T05:51:35;6.70;99.90
9951;DHT22;24074;49.254;6.702;2024-02-21T05:54:01;6.80;99.90
9951;DHT22;24074;49.254;6.702;2024-02-21T05:56:27;6.70;99.90
9951;DHT22;24074;49.254;6.702;2024-02-21T05:58:52;6.60;99.90
9951;DHT22;24074;49.254;6.702;2024-02-21T06:01:21;6.60;99.90
9951;DHT22;24074;49.254;6.702;2024-02-21T06:03:47;6.60;99.90
9951;DHT22;24074;49.254;6.702;2024-02-21T06:06:13;6.60;99.90
9951;DHT22;24074;49.254;6.702;2024-02-21T06:08:40;6.60;99.90
9951;DHT22;24074;49.254;6.702;2024-02-21T06:11:05;6.60;99.90
9951;DHT22;24074;49.254;6.702;2024-02-21T06:13:31;6.50;99.90
9951;DHT22;24074;49.254;6.702;2024-02-21T06:15:57;6.50;99.90
9951;DHT22;24074;49.254;6.702;2024-02-21T06:18:22;6.50;99.90
9951;DHT22;24074;49.254;6.702;2024-02-21T06:20:48;6.50;99.90
9951;DHT22;24074;49.254;6.702;2024-02-21T06:23:15;6.40;99.90
9951;DHT22;24074;49.254;6.702;2024-02-21T06:25:44;6.40;99.90
9951;DHT22;24074;49.254;6.702;2024-02-21T06:28:10;6.40;99.90
9951;DHT22;24074;49.254;6.702;2024-02-21T06:30:36;6.40;99.90
9951;DHT22;24074;49.254;6.702;2024-02-21T06:33:01;6.30;99.90
9951;DHT22;24074;49.254;6.702;2024-02-21T06:35:28;6.30;99.90
9951;DHT22;24074;49.254;6.702;2024-02-21T06:37:54;6.20;99.90
9951;DHT22;24074;49.254;6.702;2024-02-21T06:40:23;6.20;99.90
9951;DHT22;24074;49.254;6.702;2024-02-21T06:42:49;6.20;99.90
9951;DHT22;24074;49.254;6.702;2024-02-21T06:45:15;6.10;99.90
9951;DHT22;24074;49.254;6.702;2024-02-21T06:47:41;6.20;99.90
9951;DHT22;24074;49.254;6.702;2024-02-21T06:50:07;6.20;99.90
9951;DHT22;24074;49.254;6.702;2024-02-21T06:52:34;6.30;99.90
9951;DHT22;24074;49.254;6.702;2024-02-21T06:54:59;6.40;99.90
9951;DHT22;24074;49.254;6.702;2024-02-21T06:57:25;6.40;99.90
9951;DHT22;24074;49.254;6.702;2024-02-21T06:59:50;6.40;99.90
9951;DHT22;24074;49.254;6.702;2024-02-21T07:02:16;6.50;99.90
9951;DHT22;24074;49.254;6.702;2024-02-21T07:04:42;6.50;99.90
9951;DHT22;24074;49.254;6.702;2024-02-21T07:07:09;6.60;99.90
9951;DHT22;24074;49.254;6.702;2024-02-21T07:09:34;6.60;99.90
9951;DHT22;24074;49.254;6.702;2024-02-21T07:12:00;6.70;99.90
9951;DHT22;24074;49.254;6.702;2024-02-21T07:14:28;6.80;99.90
9951;DHT22;24074;49.254;6.702;2024-02-21T07:16:53;6.90;99.90
9951;DHT22;24074;49.254;6.702;2024-02-21T07:19:20;7.00;99.90
9951;DHT22;24074;49.254;6.702;2024-02-21T07:21:45;7.10;99.90
9951;DHT22;24074;49.254;6.702;2024-02-21T07:24:11;7.20;99.90
9951;DHT22;24074;49.254;6.702;2024-02-21T07:26:40;7.30;99.90
9951;DHT22;24074;49.254;6.702;2024-02-21T07:29:06;7.40;99.90
9951;DHT22;24074;49.254;6.702;2024-02-21T07:31:31;7.50;99.90
9951;DHT22;24074;49.254;6.702;2024-02-21T07:34:03;7.60;99.90
9951;DHT22;24074;49.254;6.702;2024-02-21T07:36:29;7.60;99.90
9951;DHT22;24074;49.254;6.702;2024-02-21T07:38:58;7.70;99.90
9951;DHT22;24074;49.254;6.702;2024-02-21T07:41:25;7.70;99.90
9951;DHT22;24074;49.254;6.702;2024-02-21T07:43:50;7.70;99.90
9951;DHT22;24074;49.254;6.702;2024-02-21T07:46:17;7.80;99.90
9951;DHT22;24074;49.254;6.702;2024-02-21T07:48:44;7.90;99.90
9951;DHT22;24074;49.254;6.702;2024-02-21T07:51:10;8.10;99.90
9951;DHT22;24074;49.254;6.702;2024-02-21T07:53:35;8.10;99.90
9951;DHT22;24074;49.254;6.702;2024-02-21T07:56:01;8.20;99.90
9951;DHT22;24074;49.254;6.702;2024-02-21T07:58:26;8.30;99.90
9951;DHT22;24074;49.254;6.702;2024-02-21T08:00:52;8.40;99.90
9951;DHT22;24074;49.254;6.702;2024-02-21T08:03:17;8.40;99.90
9951;DHT22;24074;49.254;6.702;2024-02-21T08:05:43;8.50;99.90
9951;DHT22;24074;49.254;6.702;2024-02-21T08:08:09;8.70;99.90
9951;DHT22;24074;49.254;6.702;2024-02-21T08:10:35;8.80;99.90
9951;DHT22;24074;49.254;6.702;2024-02-21T08:13:00;8.80;99.90
9951;DHT22;24074;49.254;6.702;2024-02-21T08:15:26;8.70;99.90
9951;DHT22;24074;49.254;6.702;2024-02-21T08:17:55;8.50;99.90
9951;DHT22;24074;49.254;6.702;2024-02-21T08:20:25;8.50;99.90
9951;DHT22;24074;49.254;6.702;2024-02-21T08:22:50;8.70;99.90
9951;DHT22;24074;49.254;6.702;2024-02-21T08:25:16;8.50;99.90
9951;DHT22;24074;49.254;6.702;2024-02-21T08:27:44;8.60;99.90
9951;DHT22;24074;49.254;6.702;2024-02-21T08:30:11;8.60;99.90
9951;DHT22;24074;49.254;6.702;2024-02-21T08:32:36;8.70;99.90
9951;DHT22;24074;49.254;6.702;2024-02-21T08:35:02;8.90;99.90
9951;DHT22;24074;49.254;6.702;2024-02-21T08:37:28;9.00;99.90
9951;DHT22;24074;49.254;6.702;2024-02-21T08:39:54;9.20;99.90
9951;DHT22;24074;49.254;6.702;2024-02-21T08:42:20;9.20;99.90
9951;DHT22;24074;49.254;6.702;2024-02-21T08:44:45;9.10;99.90
9951;DHT22;24074;49.254;6.702;2024-02-21T08:47:11;9.00;99.90
9951;DHT22;24074;49.254;6.702;2024-02-21T08:49:37;9.20;99.90
9951;DHT22;24074;49.254;6.702;2024-02-21T08:52:03;9.20;99.90
9951;DHT22;24074;49.254;6.702;2024-02-21T08:54:29;9.20;99.90
9951;DHT22;24074;49.254;6.702;2024-02-21T08:56:54;9.10;99.90
9951;DHT22;24074;49.254;6.702;2024-02-21T08:59:20;9.30;99.90
9951;DHT22;24074;49.254;6.702;2024-02-21T09:01:46;9.40;99.90
9951;DHT22;24074;49.254;6.702;2024-02-21T09:04:12;9.60;99.90
9951;DHT22;24074;49.254;6.702;2024-02-21T09:06:38;9.90;99.90
9951;DHT22;24074;49.254;6.702;2024-02-21T09:09:10;9.90;99.90
9951;DHT22;24074;49.254;6.702;2024-02-21T09:11:35;10.30;99.90
9951;DHT22;24074;49.254;6.702;2024-02-21T09:14:01;10.30;99.90
9951;DHT22;24074;49.254;6.702;2024-02-21T09:16:32;10.30;99.90
9951;DHT22;24074;49.254;6.702;2024-02-21T09:18:58;10.60;99.90
9951;DHT22;24074;49.254;6.702;2024-02-21T09:21:23;10.70;99.90
9951;DHT22;24074;49.254;6.702;2024-02-21T09:23:49;10.50;99.90
9951;DHT22;24074;49.254;6.702;2024-02-21T09:26:14;10.70;99.90
9951;DHT22;24074;49.254;6.702;2024-02-21T09:28:42;10.90;99.90
9951;DHT22;24074;49.254;6.702;2024-02-21T09:31:08;11.10;99.90
9951;DHT22;24074;49.254;6.702;2024-02-21T09:33:34;11.30;99.90
9951;DHT22;24074;49.254;6.702;2024-02-21T09:36:00;11.40;99.90
9951;DHT22;24074;49.254;6.702;2024-02-21T09:38:25;11.10;99.90
9951;DHT22;24074;49.254;6.702;2024-02-21T09:41:18;11.50;99.90
9951;DHT22;24074;49.254;6.702;2024-02-21T09:43:44;11.70;99.90
9951;DHT22;24074;49.254;6.702;2024-02-21T09:46:17;11.90;99.90
9951;DHT22;24074;49.254;6.702;2024-02-21T09:49:07;12.10;99.90
9951;DHT22;24074;49.254;6.702;2024-02-21T09:51:36;12.30;99.90
9951;DHT22;24074;49.254;6.702;2024-02-21T09:54:04;12.30;99.90
9951;DHT22;24074;49.254;6.702;2024-02-21T09:56:30;12.20;99.90
9951;DHT22;24074;49.254;6.702;2024-02-21T09:58:56;12.20;99.90
9951;DHT22;24074;49.254;6.702;2024-02-21T10:01:22;12.10;99.90
9951;DHT22;24074;49.254;6.702;2024-02-21T10:03:48;12.20;99.90
9951;DHT22;24074;49.254;6.702;2024-02-21T10:06:14;12.10;99.90
9951;DHT22;24074;49.254;6.702;2024-02-21T10:08:40;12.10;99.90
9951;DHT22;24074;49.254;6.702;2024-02-21T10:11:06;12.30;99.90
9951;DHT22;24074;49.254;6.702;2024-02-21T10:13:34;11.60;99.90
9951;DHT22;24074;49.254;6.702;2024-02-21T10:16:04;11.80;99.90
9951;DHT22;24074;49.254;6.702;2024-02-21T10:18:30;12.00;99.90
9951;DHT22;24074;49.254;6.702;2024-02-21T10:21:06;12.10;99.90
9951;DHT22;24074;49.254;6.702;2024-02-21T10:23:42;11.90;99.90
9951;DHT22;24074;49.254;6.702;2024-02-21T10:26:09;11.80;99.90
9951;DHT22;24074;49.254;6.702;2024-02-21T10:28:35;11.60;99.90
9951;DHT22;24074;49.254;6.702;2024-02-21T10:31:01;11.40;99.90
9951;DHT22;24074;49.254;6.702;2024-02-21T10:33:26;11.60;99.90
9951;DHT22;24074;49.254;6.702;2024-02-21T10:35:53;11.60;99.90
9951;DHT22;24074;49.254;6.702;2024-02-21T10:38:19;11.40;99.90
9951;DHT22;24074;49.254;6.702;2024-02-21T10:40:46;11.10;99.90
9951;DHT22;24074;49.254;6.702;2024-02-21T10:43:14;11.10;99.90
9951;DHT22;24074;49.254;6.702;2024-02-21T10:45:41;11.00;99.90
9951;DHT22;24074;49.254;6.702;2024-02-21T10:48:14;11.10;99.90
9951;DHT22;24074;49.254;6.702;2024-02-21T10:56:29;11.00;99.90
9951;DHT22;24074;49.254;6.702;2024-02-21T10:58:57;11.20;99.90
9951;DHT22;24074;49.254;6.702;2024-02-21T11:01:23;11.00;99.90
9951;DHT22;24074;49.254;6.702;2024-02-21T11:03:51;11.00;99.90
9951;DHT22;24074;49.254;6.702;2024-02-21T11:06:20;11.20;99.90
9951;DHT22;24074;49.254;6.702;2024-02-21T11:08:47;11.20;99.90
9951;DHT22;24074;49.254;6.702;2024-02-21T11:11:13;11.40;99.90
9951;DHT22;24074;49.254;6.702;2024-02-21T11:13:44;11.50;99.90
9951;DHT22;24074;49.254;6.702;2024-02-21T11:16:22;11.60;99.90
9951;DHT22;24074;49.254;6.702;2024-02-21T11:18:48;11.70;99.90
9951;DHT22;24074;49.254;6.702;2024-02-21T11:21:14;11.70;99.90
9951;DHT22;24074;49.254;6.702;2024-02-21T11:23:40;11.70;99.90
9951;DHT22;24074;49.254;6.702;2024-02-21T11:26:09;11.80;99.90
9951;DHT22;24074;49.254;6.702;2024-02-21T11:28:36;11.70;99.90
9951;DHT22;24074;49.254;6.702;2024-02-21T11:31:11;11.50;99.90
9951;DHT22;24074;49.254;6.702;2024-02-21T11:33:39;11.50;99.90
9951;DHT22;24074;49.254;6.702;2024-02-21T11:36:05;11.80;99.90
9951;DHT22;24074;49.254;6.702;2024-02-21T11:38:30;11.70;99.90
9951;DHT22;24074;49.254;6.702;2024-02-21T11:40:56;11.90;99.90
9951;DHT22;24074;49.254;6.702;2024-02-21T11:43:22;11.80;99.90
9951;DHT22;24074;49.254;6.702;2024-02-21T11:45:47;11.40;99.90
9951;DHT22;24074;49.254;6.702;2024-02-21T11:48:16;11.20;99.90
9951;DHT22;24074;49.254;6.702;2024-02-21T11:50:42;11.20;99.90
9951;DHT22;24074;49.254;6.702;2024-02-21T11:53:07;11.40;99.90
9951;DHT22;24074;49.254;6.702;2024-02-21T11:55:33;11.30;99.90
9951;DHT22;24074;49.254;6.702;2024-02-21T11:57:59;11.20;99.90
9951;DHT22;24074;49.254;6.702;2024-02-21T12:00:25;11.20;99.90
9951;DHT22;24074;49.254;6.702;2024-02-21T12:02:51;11.00;99.90
9951;DHT22;24074;49.254;6.702;2024-02-21T12:05:19;11.10;99.90
9951;DHT22;24074;49.254;6.702;2024-02-21T12:07:45;11.10;99.90
9951;DHT22;24074;49.254;6.702;2024-02-21T12:10:11;11.20;99.90
9951;DHT22;24074;49.254;6.702;2024-02-21T12:12:37;11.60;99.90
9951;DHT22;24074;49.254;6.702;2024-02-21T12:15:07;11.60;99.90
9951;DHT22;24074;49.254;6.702;2024-02-21T12:17:36;11.50;99.90
9951;DHT22;24074;49.254;6.702;2024-02-21T12:20:03;11.30;99.90
9951;DHT22;24074;49.254;6.702;2024-02-21T12:22:31;11.30;99.90
9951;DHT22;24074;49.254;6.702;2024-02-21T12:24:58;11.60;99.90
9951;DHT22;24074;49.254;6.702;2024-02-21T12:27:24;11.60;99.90
9951;DHT22;24074;49.254;6.702;2024-02-21T12:29:50;11.40;99.90
9951;DHT22;24074;49.254;6.702;2024-02-21T12:32:16;11.30;99.90
9951;DHT22;24074;49.254;6.702;2024-02-21T12:34:41;11.20;99.90
9951;DHT22;24074;49.254;6.702;2024-02-21T12:37:07;11.20;99.90
9951;DHT22;24074;49.254;6.702;2024-02-21T12:39:32;11.10;99.90
9951;DHT22;24074;49.254;6.702;2024-02-21T12:41:58;11.30;99.90
9951;DHT22;24074;49.254;6.702;2024-02-21T12:44:24;11.30;99.90
9951;DHT22;24074;49.254;6.702;2024-02-21T12:46:49;11.20;99.90
9951;DHT22;24074;49.254;6.702;2024-02-21T12:49:19;11.10;99.90
9951;DHT22;24074;49.254;6.702;2024-02-21T12:51:47;11.00;99.90
9951;DHT22;24074;49.254;6.702;2024-02-21T12:54:13;11.30;99.90
9951;DHT22;24074;49.254;6.702;2024-02-21T12:56:38;11.40;99.90
9951;DHT22;24074;49.254;6.702;2024-02-21T12:59:05;11.60;99.90
9951;DHT22;24074;49.254;6.702;2024-02-21T13:01:34;11.80;99.90
9951;DHT22;24074;49.254;6.702;2024-02-21T13:04:00;11.60;99.90
9951;DHT22;24074;49.254;6.702;2024-02-21T13:06:26;11.60;99.90
9951;DHT22;24074;49.254;6.702;2024-02-21T13:08:52;11.60;99.90
9951;DHT22;24074;49.254;6.702;2024-02-21T13:11:20;11.90;99.90
9951;DHT22;24074;49.254;6.702;2024-02-21T13:13:46;11.90;99.90
9951;DHT22;24074;49.254;6.702;2024-02-21T13:16:12;11.80;99.90
9951;DHT22;24074;49.254;6.702;2024-02-21T13:18:37;11.60;99.90
9951;DHT22;24074;49.254;6.702;2024-02-21T13:21:06;11.40;99.90
9951;DHT22;24074;49.254;6.702;2024-02-21T13:23:32;11.50;99.90
9951;DHT22;24074;49.254;6.702;2024-02-21T13:25:58;11.60;99.90
9951;DHT22;24074;49.254;6.702;2024-02-21T13:28:23;11.60;99.90
9951;DHT22;24074;49.254;6.702;2024-02-21T13:30:49;11.60;99.90
9951;DHT22;24074;49.254;6.702;2024-02-21T13:33:14;11.70;99.90
9951;DHT22;24074;49.254;6.702;2024-02-21T13:35:40;11.90;99.90
9951;DHT22;24074;49.254;6.702;2024-02-21T13:38:05;11.80;99.90
9951;DHT22;24074;49.254;6.702;2024-02-21T13:40:31;11.70;99.90
9951;DHT22;24074;49.254;6.702;2024-02-21T13:42:57;11.50;99.90
9951;DHT22;24074;49.254;6.702;2024-02-21T13:45:26;11.40;99.90
9951;DHT22;24074;49.254;6.702;2024-02-21T13:47:52;11.40;99.90
9951;DHT22;24074;49.254;6.702;2024-02-21T13:50:18;11.50;99.90
9951;DHT22;24074;49.254;6.702;2024-02-21T13:52:44;11.60;99.90
9951;DHT22;24074;49.254;6.702;2024-02-21T13:55:09;11.50;99.90
9951;DHT22;24074;49.254;6.702;2024-02-21T13:57:36;11.40;99.90
9951;DHT22;24074;49.254;6.702;2024-02-21T14:00:05;11.40;99.90
9951;DHT22;24074;49.254;6.702;2024-02-21T14:02:31;11.40;99.90
9951;DHT22;24074;49.254;6.702;2024-02-21T14:04:56;11.60;99.90
9951;DHT22;24074;49.254;6.702;2024-02-21T14:07:22;11.50;99.90
9951;DHT22;24074;49.254;6.702;2024-02-21T14:09:49;11.40;99.90
9951;DHT22;24074;49.254;6.702;2024-02-21T14:12:15;11.50;99.90
9951;DHT22;24074;49.254;6.702;2024-02-21T14:14:43;11.50;99.90
9951;DHT22;24074;49.254;6.702;2024-02-21T14:17:09;11.50;99.90
9951;DHT22;24074;49.254;6.702;2024-02-21T14:19:35;11.50;99.90
9951;DHT22;24074;49.254;6.702;2024-02-21T14:22:00;11.40;99.90
9951;DHT22;24074;49.254;6.702;2024-02-21T14:24:27;11.40;99.90
9951;DHT22;24074;49.254;6.702;2024-02-21T14:26:53;11.30;99.90
9951;DHT22;24074;49.254;6.702;2024-02-21T14:29:19;11.20;99.90
9951;DHT22;24074;49.254;6.702;2024-02-21T14:31:45;11.30;99.90
9951;DHT22;24074;49.254;6.702;2024-02-21T14:34:10;11.30;99.90
9951;DHT22;24074;49.254;6.702;2024-02-21T14:36:36;11.30;99.90
9951;DHT22;24074;49.254;6.702;2024-02-21T14:39:01;11.40;99.90
9951;DHT22;24074;49.254;6.702;2024-02-21T14:41:28;11.30;99.90
9951;DHT22;24074;49.254;6.702;2024-02-21T14:43:55;11.20;99.90
9951;DHT22;24074;49.254;6.702;2024-02-21T14:46:25;11.10;99.90
9951;DHT22;24074;49.254;6.702;2024-02-21T14:48:51;11.20;99.90
9951;DHT22;24074;49.254;6.702;2024-02-21T14:51:17;11.10;99.90
9951;DHT22;24074;49.254;6.702;2024-02-21T14:53:42;11.10;99.90
9951;DHT22;24074;49.254;6.702;2024-02-21T14:56:15;11.00;99.90
9951;DHT22;24074;49.254;6.702;2024-02-21T14:58:41;11.10;99.90
9951;DHT22;24074;49.254;6.702;2024-02-21T15:01:09;11.10;99.90
9951;DHT22;24074;49.254;6.702;2024-02-21T15:03:35;11.00;99.90
9951;DHT22;24074;49.254;6.702;2024-02-21T15:06:02;11.00;99.90
9951;DHT22;24074;49.254;6.702;2024-02-21T15:08:27;11.00;99.90
9951;DHT22;24074;49.254;6.702;2024-02-21T15:10:54;11.10;99.90
9951;DHT22;24074;49.254;6.702;2024-02-21T15:13:20;11.10;99.90
9951;DHT22;24074;49.254;6.702;2024-02-21T15:15:47;11.00;99.90
9951;DHT22;24074;49.254;6.702;2024-02-21T15:18:17;11.00;99.90
9951;DHT22;24074;49.254;6.702;2024-02-21T15:20:42;11.00;99.90
9951;DHT22;24074;49.254;6.702;2024-02-21T15:23:08;11.00;99.90
9951;DHT22;24074;49.254;6.702;2024-02-21T15:25:33;10.90;99.90
9951;DHT22;24074;49.254;6.702;2024-02-21T15:27:59;10.90;99.90
9951;DHT22;24074;49.254;6.702;2024-02-21T15:30:25;10.80;99.90
9951;DHT22;24074;49.254;6.702;2024-02-21T15:32:52;10.80;99.90
9951;DHT22;24074;49.254;6.702;2024-02-21T15:35:20;10.80;99.90
9951;DHT22;24074;49.254;6.702;2024-02-21T15:37:46;10.80;99.90
9951;DHT22;24074;49.254;6.702;2024-02-21T15:40:13;10.60;99.90
9951;DHT22;24074;49.254;6.702;2024-02-21T15:42:40;10.60;99.90
9951;DHT22;24074;49.254;6.702;2024-02-21T15:45:05;10.50;99.90
9951;DHT22;24074;49.254;6.702;2024-02-21T15:47:32;10.50;99.90
9951;DHT22;24074;49.254;6.702;2024-02-21T15:49:58;10.50;99.90
9951;DHT22;24074;49.254;6.702;2024-02-21T15:52:25;10.50;99.90
9951;DHT22;24074;49.254;6.702;2024-02-21T15:54:52;10.40;99.90